createdAt,value
2022-08-11T00:00:35.623Z,4.95
2022-08-11T00:01:11.806Z,4.28
2022-08-11T00:01:52.572Z,4.78
2022-08-11T00:02:28.501Z,4.32
2022-08-11T00:03:06.315Z,5.15
2022-08-11T00:03:47.357Z,5.28
2022-08-11T00:04:23.888Z,4.80
2022-08-11T00:05:01.500Z,4.15
2022-08-11T00:05:46.977Z,5.10
2022-08-11T00:06:29.254Z,4.18
2022-08-11T00:07:07.010Z,4.10
2022-08-11T00:07:45.078Z,5.05
2022-08-11T00:08:25.430Z,5.00
2022-08-11T00:09:39.396Z,4.53
2022-08-11T00:10:14.106Z,4.50
2022-08-11T00:10:55.778Z,5.28
2022-08-11T00:11:37.457Z,4.28
2022-08-11T00:12:17.130Z,5.28
2022-08-11T00:12:53.478Z,5.00
2022-08-11T00:13:36.243Z,4.18
2022-08-11T00:14:15.882Z,4.45
2022-08-11T00:14:57.825Z,4.93
2022-08-11T00:15:49.157Z,4.55
2022-08-11T00:16:24.306Z,4.95
2022-08-11T00:16:58.538Z,5.03
2022-08-11T00:17:36.737Z,4.57
2022-08-11T00:18:10.270Z,5.18
2022-08-11T00:18:44.912Z,5.43
2022-08-11T00:20:14.652Z,3.85
2022-08-11T00:20:18.310Z,4.50
2022-08-11T00:20:51.870Z,5.10
2022-08-11T00:21:35.486Z,5.45
2022-08-11T00:22:24.404Z,6.03
2022-08-11T00:23:05.565Z,4.97
2022-08-11T00:23:42.766Z,5.88
2022-08-11T00:24:16.407Z,4.95
2022-08-11T00:24:55.095Z,4.18
2022-08-11T00:25:30.215Z,4.47
2022-08-11T00:26:08.551Z,4.72
2022-08-11T00:26:43.399Z,4.03
2022-08-11T00:27:15.704Z,7.38
2022-08-11T00:27:51.640Z,3.63
2022-08-11T00:28:26.993Z,4.65
2022-08-11T00:29:09.297Z,4.82
2022-08-11T00:29:51.774Z,4.75
2022-08-11T00:30:24.314Z,5.30
2022-08-11T00:31:01.705Z,4.95
2022-08-11T00:31:38.296Z,5.40
2022-08-11T00:32:15.716Z,5.90
2022-08-11T00:32:59.083Z,4.32
2022-08-11T00:33:44.119Z,5.20
2022-08-11T00:34:20.856Z,4.80
2022-08-11T00:35:53.604Z,5.47
2022-08-11T00:35:56.959Z,5.45
2022-08-11T00:36:45.781Z,4.68
2022-08-11T00:37:20.765Z,3.90
2022-08-11T00:37:58.984Z,4.78
2022-08-11T00:38:34.592Z,4.78
2022-08-11T00:39:10.674Z,4.30
2022-08-11T00:39:47.703Z,5.07
2022-08-11T00:40:29.235Z,4.60
2022-08-11T00:41:11.312Z,4.30
2022-08-11T00:41:58.407Z,4.32
2022-08-11T00:42:54.251Z,4.50
2022-08-11T00:43:50.234Z,4.72
2022-08-11T00:44:32.825Z,4.32
2022-08-11T00:45:15.923Z,5.47
2022-08-11T00:46:09.482Z,4.88
2022-08-11T00:46:56.095Z,4.90
2022-08-11T00:47:43.212Z,4.72
2022-08-11T00:48:28.009Z,5.00
2022-08-11T00:49:14.265Z,4.55
2022-08-11T00:50:01.523Z,4.90
2022-08-11T00:50:43.402Z,4.97
2022-08-11T00:51:25.671Z,3.60
2022-08-11T00:52:16.387Z,4.18
2022-08-11T00:52:59.596Z,4.55
2022-08-11T00:53:41.732Z,4.82
2022-08-11T00:54:33.190Z,4.30
2022-08-11T00:55:33.494Z,3.97
2022-08-11T00:56:33.464Z,4.75
2022-08-11T00:57:37.111Z,3.83
2022-08-11T00:58:40.641Z,4.47
2022-08-11T01:00:03.779Z,4.85
2022-08-11T01:00:54.080Z,4.85
2022-08-11T01:01:47.097Z,4.95
2022-08-11T01:02:30.737Z,4.15
2022-08-11T01:03:35.836Z,4.55
2022-08-11T01:04:23.887Z,4.75
2022-08-11T01:05:38.203Z,4.65
2022-08-11T01:06:38.612Z,4.85
2022-08-11T01:08:00.600Z,4.93
2022-08-11T01:09:04.411Z,4.85
2022-08-11T01:10:06.972Z,4.43
2022-08-11T01:11:08.777Z,4.28
2022-08-11T01:12:21.598Z,4.47
2022-08-11T01:13:16.224Z,4.20
2022-08-11T01:14:34.467Z,3.95
2022-08-11T01:15:32.731Z,3.92
2022-08-11T01:16:49.629Z,4.70
2022-08-11T01:18:10.496Z,4.93
2022-08-11T01:19:05.498Z,4.15
2022-08-11T01:20:39.442Z,4.78
2022-08-11T01:21:35.883Z,4.28
2022-08-11T01:22:40.373Z,4.43
2022-08-11T01:24:03.855Z,4.55
2022-08-11T01:25:18.531Z,4.43
2022-08-11T01:26:29.018Z,4.10
2022-08-11T01:27:20.976Z,4.97
2022-08-11T01:28:29.451Z,4.80
2022-08-11T01:29:49.590Z,4.65
2022-08-11T01:30:56.777Z,4.70
2022-08-11T01:32:01.820Z,4.68
2022-08-11T01:33:20.710Z,5.18
2022-08-11T01:34:27.714Z,4.97
2022-08-11T01:35:43.525Z,5.18
2022-08-11T01:36:56.852Z,5.20
2022-08-11T01:38:01.679Z,5.28
2022-08-11T01:39:09.488Z,5.53
2022-08-11T01:40:18.168Z,4.80
2022-08-11T01:41:23.023Z,5.53
2022-08-11T01:42:33.065Z,5.22
2022-08-11T01:44:12.502Z,4.68
2022-08-11T01:45:19.353Z,4.72
2022-08-11T01:45:55.719Z,5.55
2022-08-11T01:46:33.156Z,5.63
2022-08-11T01:47:38.539Z,4.82
2022-08-11T01:48:45.926Z,4.72
2022-08-11T01:50:07.141Z,4.72
2022-08-11T01:50:28.067Z,5.03
2022-08-11T01:51:20.438Z,5.18
2022-08-11T01:52:16.300Z,5.80
2022-08-11T01:53:04.322Z,5.32
2022-08-11T01:53:55.760Z,4.53
2022-08-11T01:54:37.449Z,5.32
2022-08-11T01:55:16.019Z,4.43
2022-08-11T01:55:58.116Z,5.05
2022-08-11T01:56:40.531Z,4.90
2022-08-11T01:57:34.627Z,5.78
2022-08-11T01:58:16.437Z,4.97
2022-08-11T01:58:58.250Z,4.63
2022-08-11T01:59:39.650Z,4.85
2022-08-11T02:00:16.532Z,4.93
2022-08-11T02:00:58.446Z,6.22
2022-08-11T02:01:50.528Z,5.65
2022-08-11T02:02:47.722Z,5.70
2022-08-11T02:03:29.823Z,5.93
2022-08-11T02:04:21.148Z,4.75
2022-08-11T02:04:59.659Z,4.22
2022-08-11T02:06:01.402Z,4.88
2022-08-11T02:06:58.397Z,4.38
2022-08-11T02:07:38.818Z,5.13
2022-08-11T02:08:59.221Z,5.05
2022-08-11T02:10:35.561Z,5.43
2022-08-11T02:11:31.583Z,5.15
2022-08-11T02:12:16.654Z,4.93
2022-08-11T02:12:55.860Z,4.93
2022-08-11T02:13:37.343Z,4.85
2022-08-11T02:14:22.499Z,3.97
2022-08-11T02:15:05.328Z,4.97
2022-08-11T02:15:46.627Z,4.30
2022-08-11T02:16:39.556Z,4.43
2022-08-11T02:17:19.379Z,5.65
2022-08-11T02:18:03.557Z,5.43
2022-08-11T02:18:54.300Z,5.20
2022-08-11T02:19:53.733Z,5.10
2022-08-11T02:20:45.711Z,4.45
2022-08-11T02:21:47.419Z,5.43
2022-08-11T02:22:45.737Z,4.63
2022-08-11T02:24:07.016Z,4.70
2022-08-11T02:24:41.661Z,6.55
2022-08-11T02:25:26.784Z,5.57
2022-08-11T02:26:05.960Z,5.75
2022-08-11T02:26:42.166Z,6.68
2022-08-11T02:27:23.435Z,6.18
2022-08-11T02:28:04.881Z,4.40
2022-08-11T02:28:51.507Z,5.30
2022-08-11T02:29:32.453Z,6.43
2022-08-11T02:30:08.553Z,5.38
2022-08-11T02:32:08.338Z,5.72
2022-08-11T02:32:30.744Z,5.07
2022-08-11T02:33:27.896Z,5.70
2022-08-11T02:34:12.475Z,6.03
2022-08-11T02:35:00.221Z,7.80
2022-08-11T02:35:48.387Z,9.57
2022-08-11T02:36:28.199Z,16.77
2022-08-11T02:37:16.225Z,20.27
2022-08-11T02:38:11.333Z,27.70
2022-08-11T02:38:52.073Z,25.13
2022-08-11T02:39:41.149Z,23.58
2022-08-11T02:40:23.433Z,26.70
2022-08-11T02:41:25.592Z,25.00
2022-08-11T02:42:35.115Z,20.65
2022-08-11T02:43:19.159Z,21.38
2022-08-11T02:44:17.675Z,17.98
2022-08-11T02:45:00.110Z,16.08
2022-08-11T02:45:50.177Z,13.48
2022-08-11T02:46:31.761Z,12.98
2022-08-11T02:47:14.071Z,16.15
2022-08-11T02:48:14.628Z,18.42
2022-08-11T02:49:13.152Z,21.05
2022-08-11T02:50:00.071Z,22.67
2022-08-11T02:50:49.462Z,24.25
2022-08-11T02:51:32.804Z,21.15
2022-08-11T02:52:08.960Z,23.90
2022-08-11T02:52:53.815Z,21.45
2022-08-11T02:53:32.249Z,20.70
2022-08-11T02:54:18.183Z,21.35
2022-08-11T02:55:02.045Z,17.25
2022-08-11T02:55:57.349Z,15.60
2022-08-11T02:56:44.739Z,12.43
2022-08-11T02:57:25.349Z,10.45
2022-08-11T02:58:03.935Z,9.65
2022-08-11T02:58:44.570Z,8.90
2022-08-11T02:59:40.892Z,7.82
2022-08-11T03:00:18.250Z,5.70
2022-08-11T03:00:57.429Z,6.55
2022-08-11T03:01:41.114Z,5.60
2022-08-11T03:02:24.818Z,5.38
2022-08-11T03:03:16.572Z,5.97
2022-08-11T03:03:58.108Z,6.20
2022-08-11T03:04:38.082Z,5.75
2022-08-11T03:05:27.719Z,5.47
2022-08-11T03:06:12.667Z,6.00
2022-08-11T03:06:52.805Z,5.35
2022-08-11T03:07:33.631Z,6.63
2022-08-11T03:08:18.807Z,6.55
2022-08-11T03:08:56.658Z,7.38
2022-08-11T03:09:49.663Z,6.45
2022-08-11T03:10:25.748Z,6.25
2022-08-11T03:11:20.462Z,6.25
2022-08-11T03:12:17.637Z,6.10
2022-08-11T03:13:09.748Z,7.18
2022-08-11T03:14:04.472Z,5.95
2022-08-11T03:15:02.383Z,4.85
2022-08-11T03:16:03.426Z,6.03
2022-08-11T03:16:49.532Z,4.88
2022-08-11T03:17:30.918Z,6.55
2022-08-11T03:18:28.554Z,6.10
2022-08-11T03:19:12.044Z,5.75
2022-08-11T03:19:55.397Z,5.80
2022-08-11T03:20:39.310Z,4.80
2022-08-11T03:21:21.367Z,5.90
2022-08-11T03:22:13.255Z,6.38
2022-08-11T03:23:01.918Z,6.20
2022-08-11T03:23:39.706Z,5.82
2022-08-11T03:24:19.323Z,5.65
2022-08-11T03:25:04.637Z,8.02
2022-08-11T03:25:46.564Z,7.07
2022-08-11T03:26:26.370Z,5.95
2022-08-11T03:27:12.475Z,6.00
2022-08-11T03:27:53.700Z,4.70
2022-08-11T03:28:35.085Z,5.13
2022-08-11T03:29:18.394Z,5.40
2022-08-11T03:30:16.090Z,5.18
2022-08-11T03:30:57.191Z,5.15
2022-08-11T03:31:35.094Z,6.03
2022-08-11T03:32:14.512Z,5.63
2022-08-11T03:33:20.354Z,5.30
2022-08-11T03:34:07.600Z,6.88
2022-08-11T03:34:44.923Z,5.13
2022-08-11T03:35:21.617Z,5.13
2022-08-11T03:36:13.001Z,6.70
2022-08-11T03:37:39.815Z,6.82
2022-08-11T03:38:15.663Z,6.10
2022-08-11T03:39:00.378Z,5.75
2022-08-11T03:39:56.096Z,6.93
2022-08-11T03:40:59.544Z,6.32
2022-08-11T03:42:03.768Z,6.55
2022-08-11T03:42:47.697Z,6.85
2022-08-11T03:43:34.929Z,5.43
2022-08-11T03:44:27.847Z,5.15
2022-08-11T03:45:10.319Z,5.90
2022-08-11T03:46:00.447Z,4.70
2022-08-11T03:46:47.942Z,4.70
2022-08-11T03:47:53.415Z,4.35
2022-08-11T03:48:39.711Z,4.80
2022-08-11T03:49:28.281Z,5.88
2022-08-11T03:50:13.669Z,4.03
2022-08-11T03:51:04.754Z,5.65
2022-08-11T03:51:52.468Z,4.80
2022-08-11T03:52:40.874Z,5.60
2022-08-11T03:53:20.462Z,4.95
2022-08-11T03:54:07.165Z,4.13
2022-08-11T03:54:53.379Z,6.10
2022-08-11T03:55:40.220Z,5.18
2022-08-11T03:56:51.283Z,4.85
2022-08-11T03:57:59.518Z,5.38
2022-08-11T03:58:56.748Z,4.85
2022-08-11T04:00:04.212Z,5.32
2022-08-11T04:01:10.797Z,5.22
2022-08-11T04:02:15.411Z,6.93
2022-08-11T04:03:31.697Z,5.25
2022-08-11T04:04:39.455Z,4.65
2022-08-11T04:05:50.301Z,4.80
2022-08-11T04:06:52.528Z,5.97
2022-08-11T04:07:54.743Z,4.63
2022-08-11T04:09:02.337Z,4.82
2022-08-11T04:10:04.011Z,4.93
2022-08-11T04:11:11.356Z,4.40
2022-08-11T04:12:35.831Z,5.50
2022-08-11T04:14:20.942Z,4.40
2022-08-11T04:15:34.783Z,5.25
2022-08-11T04:16:44.721Z,4.85
2022-08-11T04:17:50.496Z,4.87
2022-08-11T04:18:57.830Z,4.70
2022-08-11T04:20:07.942Z,6.95
2022-08-11T04:21:14.247Z,5.47
2022-08-11T04:22:23.083Z,5.32
2022-08-11T04:23:13.388Z,5.18
2022-08-11T04:24:38.270Z,5.25
2022-08-11T04:25:57.863Z,5.45
2022-08-11T04:27:19.187Z,6.32
2022-08-11T04:28:28.661Z,8.05
2022-08-11T04:29:16.093Z,7.68
2022-08-11T04:30:05.839Z,6.75
2022-08-11T04:30:59.035Z,6.95
2022-08-11T04:31:50.634Z,7.65
2022-08-11T04:32:50.061Z,7.10
2022-08-11T04:33:41.445Z,5.70
2022-08-11T04:34:38.938Z,5.72
2022-08-11T04:35:25.141Z,7.63
2022-08-11T04:36:10.792Z,7.45
2022-08-11T04:37:25.265Z,6.30
2022-08-11T04:38:27.202Z,6.15
2022-08-11T04:39:20.278Z,6.65
2022-08-11T04:40:35.675Z,6.65
2022-08-11T04:41:32.181Z,6.97
2022-08-11T04:42:35.741Z,6.93
2022-08-11T04:44:02.143Z,6.38
2022-08-11T04:45:12.198Z,5.60
2022-08-11T04:46:28.680Z,5.85
2022-08-11T04:48:03.939Z,5.95
2022-08-11T04:49:33.073Z,6.22
2022-08-11T04:50:38.015Z,5.78
2022-08-11T04:51:46.047Z,6.40
2022-08-11T04:53:09.398Z,5.70
2022-08-11T04:54:11.611Z,6.10
2022-08-11T04:55:13.424Z,7.05
2022-08-11T04:56:21.047Z,6.45
2022-08-11T04:57:18.846Z,7.05
2022-08-11T04:58:19.603Z,6.38
2022-08-11T04:59:48.316Z,6.82
2022-08-11T05:00:37.341Z,8.52
2022-08-11T05:01:39.567Z,10.55
2022-08-11T05:02:58.933Z,7.57
2022-08-11T05:04:04.573Z,7.47
2022-08-11T05:05:05.795Z,9.35
2022-08-11T05:06:13.592Z,8.25
2022-08-11T05:07:27.373Z,6.78
2022-08-11T05:08:40.874Z,6.40
2022-08-11T05:09:29.140Z,6.45
2022-08-11T05:10:17.409Z,7.82
2022-08-11T05:11:03.827Z,6.80
2022-08-11T05:12:04.210Z,6.75
2022-08-11T05:12:42.590Z,7.70
2022-08-11T05:13:43.654Z,6.72
2022-08-11T05:14:50.008Z,6.30
2022-08-11T05:15:51.638Z,6.57
2022-08-11T05:16:44.922Z,8.15
2022-08-11T05:17:42.888Z,7.13
2022-08-11T05:18:32.742Z,8.30
2022-08-11T05:19:20.400Z,7.60
2022-08-11T05:20:07.518Z,7.55
2022-08-11T05:21:04.973Z,7.43
2022-08-11T05:21:55.316Z,8.15
2022-08-11T05:22:45.971Z,7.20
2022-08-11T05:23:35.957Z,8.38
2022-08-11T05:24:32.433Z,7.65
2022-08-11T05:26:44.735Z,6.63
2022-08-11T05:26:46.250Z,7.97
2022-08-11T05:27:42.780Z,8.40
2022-08-11T05:28:37.516Z,8.32
2022-08-11T05:29:41.063Z,7.97
2022-08-11T05:30:34.406Z,7.05
2022-08-11T05:31:27.720Z,7.25
2022-08-11T05:32:16.511Z,7.15
2022-08-11T05:33:12.827Z,7.70
2022-08-11T05:34:04.664Z,7.25
2022-08-11T05:34:53.625Z,7.97
2022-08-11T05:36:01.318Z,7.80
2022-08-11T05:36:31.345Z,9.90
2022-08-11T05:37:25.605Z,11.10
2022-08-11T05:38:15.105Z,6.65
2022-08-11T05:39:11.814Z,7.60
2022-08-11T05:40:02.398Z,7.63
2022-08-11T05:41:47.640Z,7.50
2022-08-11T05:42:38.728Z,7.70
2022-08-11T05:43:29.059Z,7.55
2022-08-11T05:44:21.311Z,7.80
2022-08-11T05:45:15.708Z,8.43
2022-08-11T05:46:16.468Z,8.25
2022-08-11T05:47:04.607Z,7.82
2022-08-11T05:47:52.639Z,7.60
2022-08-11T05:48:47.492Z,10.15
2022-08-11T05:49:34.891Z,7.47
2022-08-11T05:50:32.867Z,7.18
2022-08-11T05:51:30.010Z,6.90
2022-08-11T05:52:19.351Z,8.90
2022-08-11T05:53:09.247Z,7.22
2022-08-11T05:54:02.399Z,7.90
2022-08-11T05:54:50.160Z,10.68
2022-08-11T05:56:02.140Z,8.73
2022-08-11T05:56:43.716Z,8.77
2022-08-11T05:57:39.550Z,8.05
2022-08-11T05:58:17.900Z,8.35
2022-08-11T05:58:52.113Z,7.32
2022-08-11T05:59:28.488Z,7.82
2022-08-11T06:00:05.360Z,6.65
2022-08-11T06:00:46.794Z,8.23
2022-08-11T06:01:26.935Z,7.55
2022-08-11T06:02:05.882Z,8.50
2022-08-11T06:02:42.662Z,7.05
2022-08-11T06:03:25.623Z,7.82
2022-08-11T06:04:17.220Z,8.90
2022-08-11T06:04:57.289Z,10.25
2022-08-11T06:05:38.479Z,8.10
2022-08-11T06:06:16.202Z,8.80
2022-08-11T06:06:51.473Z,8.05
2022-08-11T06:07:47.336Z,9.27
2022-08-11T06:08:30.081Z,8.45
2022-08-11T06:09:05.674Z,17.98
2022-08-11T06:09:47.135Z,11.63
2022-08-11T06:10:33.346Z,10.52
2022-08-11T06:11:06.577Z,8.77
2022-08-11T06:11:43.173Z,9.88
2022-08-11T06:12:24.311Z,14.23
2022-08-11T06:12:58.539Z,9.57
2022-08-11T06:13:31.610Z,7.97
2022-08-11T06:14:06.499Z,9.43
2022-08-11T06:14:46.463Z,12.43
2022-08-11T06:15:18.751Z,8.93
2022-08-11T06:15:53.112Z,8.45
2022-08-11T06:16:30.930Z,10.82
2022-08-11T06:17:06.684Z,8.20
2022-08-11T06:17:48.575Z,9.77
2022-08-11T06:18:21.393Z,7.15
2022-08-11T06:18:54.355Z,7.03
2022-08-11T06:19:41.343Z,8.32
2022-08-11T06:20:19.129Z,8.55
2022-08-11T06:20:54.305Z,7.28
2022-08-11T06:21:30.303Z,8.30
2022-08-11T06:22:04.730Z,7.45
2022-08-11T06:22:37.593Z,8.50
2022-08-11T06:23:15.209Z,8.63
2022-08-11T06:23:48.598Z,9.00
2022-08-11T06:24:21.500Z,7.43
2022-08-11T06:25:00.748Z,9.98
2022-08-11T06:25:35.996Z,9.85
2022-08-11T06:26:10.086Z,7.03
2022-08-11T06:27:45.860Z,7.90
2022-08-11T06:28:22.821Z,7.70
2022-08-11T06:28:59.700Z,6.68
2022-08-11T06:29:37.815Z,6.63
2022-08-11T06:30:23.630Z,7.57
2022-08-11T06:30:56.586Z,7.10
2022-08-11T06:31:34.542Z,6.05
2022-08-11T06:32:09.742Z,8.05
2022-08-11T06:32:45.027Z,7.35
2022-08-11T06:33:24.426Z,6.93
2022-08-11T06:34:07.929Z,6.07
2022-08-11T06:34:59.443Z,8.18
2022-08-11T06:35:46.050Z,8.52
2022-08-11T06:36:31.071Z,10.65
2022-08-11T06:37:22.944Z,7.55
2022-08-11T06:38:09.078Z,7.63
2022-08-11T06:38:58.774Z,8.45
2022-08-11T06:39:46.794Z,6.32
2022-08-11T06:40:31.594Z,8.90
2022-08-11T06:41:27.707Z,6.78
2022-08-11T06:42:09.871Z,6.32
2022-08-11T06:42:54.094Z,9.15
2022-08-11T06:43:33.078Z,7.50
2022-08-11T06:44:16.970Z,6.68
2022-08-11T06:45:05.233Z,9.30
2022-08-11T06:45:47.141Z,6.93
2022-08-11T06:46:31.197Z,6.22
2022-08-11T06:47:12.215Z,10.75
2022-08-11T06:47:47.831Z,8.35
2022-08-11T06:48:25.986Z,7.07
2022-08-11T06:49:02.796Z,8.38
2022-08-11T06:49:55.025Z,7.45
2022-08-11T06:50:43.819Z,8.88
2022-08-11T06:51:17.128Z,8.95
2022-08-11T06:51:50.333Z,8.15
2022-08-11T06:52:35.181Z,8.05
2022-08-11T06:53:13.269Z,6.03
2022-08-11T06:53:56.272Z,6.70
2022-08-11T06:54:44.384Z,6.97
2022-08-11T06:55:56.569Z,5.43
2022-08-11T06:56:57.362Z,6.82
2022-08-11T06:57:56.795Z,6.47
2022-08-11T06:58:47.681Z,6.57
2022-08-11T06:59:37.349Z,7.68
2022-08-11T07:00:27.476Z,6.07
2022-08-11T07:01:07.314Z,6.20
2022-08-11T07:01:59.218Z,7.03
2022-08-11T07:02:40.414Z,7.43
2022-08-11T07:03:17.570Z,7.18
2022-08-11T07:04:00.303Z,5.93
2022-08-11T07:04:44.312Z,7.00
2022-08-11T07:05:22.825Z,6.90
2022-08-11T07:06:08.196Z,6.70
2022-08-11T07:07:11.156Z,7.80
2022-08-11T07:08:34.641Z,7.88
2022-08-11T07:09:45.194Z,7.07
2022-08-11T07:11:03.193Z,6.75
2022-08-11T07:12:23.213Z,9.13
2022-08-11T07:13:44.587Z,6.88
2022-08-11T07:15:11.780Z,9.63
2022-08-11T07:16:10.585Z,9.27
2022-08-11T07:16:45.878Z,6.65
2022-08-11T07:17:25.314Z,8.30
2022-08-11T07:18:21.874Z,8.10
2022-08-11T07:19:16.599Z,5.95
2022-08-11T07:20:09.293Z,7.15
2022-08-11T07:22:01.794Z,9.10
2022-08-11T07:22:18.581Z,7.88
2022-08-11T07:23:10.584Z,6.32
2022-08-11T07:23:57.979Z,9.25
2022-08-11T07:25:01.470Z,8.88
2022-08-11T07:25:55.035Z,7.50
2022-08-11T07:26:43.218Z,7.18
2022-08-11T07:27:35.758Z,6.90
2022-08-11T07:28:29.735Z,8.25
2022-08-11T07:29:06.151Z,7.07
2022-08-11T07:29:39.421Z,7.93
2022-08-11T07:30:12.465Z,8.80
2022-08-11T07:30:48.106Z,7.85
2022-08-11T07:31:30.403Z,6.60
2022-08-11T07:32:13.260Z,6.85
2022-08-11T07:32:54.107Z,8.77
2022-08-11T07:34:07.984Z,6.45
2022-08-11T07:34:37.405Z,9.60
2022-08-11T07:35:13.355Z,7.80
2022-08-11T07:35:55.684Z,7.20
2022-08-11T07:36:30.724Z,8.20
2022-08-11T07:37:13.798Z,8.23
2022-08-11T07:38:01.730Z,6.28
2022-08-11T07:38:47.754Z,8.85
2022-08-11T07:39:22.627Z,7.45
2022-08-11T07:39:58.554Z,6.82
2022-08-11T07:40:31.153Z,8.25
2022-08-11T07:41:03.447Z,7.50
2022-08-11T07:41:39.305Z,7.35
2022-08-11T07:42:15.533Z,7.13
2022-08-11T07:42:50.935Z,7.40
2022-08-11T07:43:23.428Z,6.15
2022-08-11T07:44:09.407Z,7.22
2022-08-11T07:44:58.115Z,7.65
2022-08-11T07:45:46.583Z,6.13
2022-08-11T07:46:35.356Z,6.40
2022-08-11T07:47:22.848Z,6.22
2022-08-11T07:48:11.056Z,7.00
2022-08-11T07:49:01.454Z,8.25
2022-08-11T07:49:51.155Z,6.35
2022-08-11T07:50:39.517Z,6.85
2022-08-11T07:51:26.961Z,9.00
2022-08-11T07:52:14.852Z,6.00
2022-08-11T07:52:52.131Z,6.60
2022-08-11T07:53:26.788Z,7.38
2022-08-11T07:54:07.759Z,6.72
2022-08-11T07:54:51.794Z,9.90
2022-08-11T07:55:50.212Z,7.47
2022-08-11T07:56:21.775Z,6.32
2022-08-11T07:58:14.605Z,6.38
2022-08-11T07:59:25.461Z,14.25
2022-08-11T08:00:33.738Z,8.38
2022-08-11T08:01:23.289Z,6.85
2022-08-11T08:02:11.104Z,6.13
2022-08-11T08:02:59.433Z,7.15
2022-08-11T08:03:54.167Z,7.32
2022-08-11T08:04:47.356Z,6.07
2022-08-11T08:05:36.054Z,6.50
2022-08-11T08:06:35.834Z,6.88
2022-08-11T08:07:23.786Z,9.30
2022-08-11T08:08:11.084Z,9.88
2022-08-11T08:08:59.521Z,7.95
2022-08-11T08:09:50.362Z,7.38
2022-08-11T08:10:38.846Z,6.78
2022-08-11T08:11:27.712Z,6.63
2022-08-11T08:12:17.340Z,9.52
2022-08-11T08:13:04.778Z,8.20
2022-08-11T08:13:53.229Z,7.50
2022-08-11T08:14:41.036Z,10.48
2022-08-11T08:15:29.995Z,7.80
2022-08-11T08:16:17.811Z,10.15
2022-08-11T08:17:05.215Z,9.07
2022-08-11T08:18:10.046Z,6.68
2022-08-11T08:18:49.752Z,10.40
2022-08-11T08:19:22.667Z,6.97
2022-08-11T08:20:00.252Z,7.38
2022-08-11T08:20:36.577Z,8.75
2022-08-11T08:21:12.561Z,10.38
2022-08-11T08:21:49.354Z,6.05
2022-08-11T08:22:38.097Z,6.63
2022-08-11T08:23:15.022Z,5.80
2022-08-11T08:23:54.034Z,7.82
2022-08-11T08:24:33.514Z,8.13
2022-08-11T08:25:07.791Z,9.02
2022-08-11T08:25:42.570Z,6.65
2022-08-11T08:26:31.529Z,10.98
2022-08-11T08:27:06.497Z,6.22
2022-08-11T08:27:40.153Z,7.28
2022-08-11T08:28:15.814Z,9.35
2022-08-11T08:28:51.010Z,7.80
2022-08-11T08:29:38.746Z,7.25
2022-08-11T08:30:27.943Z,9.48
2022-08-11T08:31:01.128Z,9.20
2022-08-11T08:31:33.600Z,8.05
2022-08-11T08:32:07.295Z,7.85
2022-08-11T08:32:41.885Z,7.47
2022-08-11T08:33:20.193Z,7.47
2022-08-11T08:33:52.962Z,7.07
2022-08-11T08:34:25.861Z,7.18
2022-08-11T08:35:04.482Z,7.38
2022-08-11T08:35:37.754Z,6.57
2022-08-11T08:36:29.613Z,7.43
2022-08-11T08:37:02.006Z,7.22
2022-08-11T08:37:45.837Z,6.15
2022-08-11T08:38:22.609Z,5.40
2022-08-11T08:38:54.927Z,6.75
2022-08-11T08:39:27.252Z,6.95
2022-08-11T08:40:02.747Z,7.03
2022-08-11T08:40:35.139Z,8.40
2022-08-11T08:41:08.624Z,9.40
2022-08-11T08:41:45.665Z,6.60
2022-08-11T08:42:21.481Z,7.45
2022-08-11T08:42:59.535Z,8.10
2022-08-11T08:43:33.112Z,8.10
2022-08-11T08:44:38.439Z,7.47
2022-08-11T08:45:16.448Z,5.78
2022-08-11T08:45:51.352Z,5.90
2022-08-11T08:46:30.643Z,6.00
2022-08-11T08:47:06.237Z,5.53
2022-08-11T08:47:44.833Z,8.50
2022-08-11T08:48:20.814Z,6.35
2022-08-11T08:48:56.846Z,8.70
2022-08-11T08:49:34.316Z,7.50
2022-08-11T08:50:19.745Z,6.90
2022-08-11T08:51:12.075Z,6.88
2022-08-11T08:51:54.850Z,7.07
2022-08-11T08:52:50.026Z,7.53
2022-08-11T08:53:29.302Z,8.15
2022-08-11T08:54:06.518Z,7.53
2022-08-11T08:54:40.789Z,6.57
2022-08-11T08:55:21.351Z,5.32
2022-08-11T08:55:56.893Z,6.00
2022-08-11T08:56:30.299Z,5.38
2022-08-11T08:57:06.848Z,5.90
2022-08-11T08:57:41.483Z,4.97
2022-08-11T08:58:15.998Z,6.28
2022-08-11T08:58:52.661Z,4.88
2022-08-11T08:59:27.139Z,5.35
2022-08-11T09:00:23.733Z,7.50
2022-08-11T09:00:58.741Z,5.93
2022-08-11T09:01:37.486Z,5.45
2022-08-11T09:02:14.263Z,5.50
2022-08-11T09:02:47.142Z,7.43
2022-08-11T09:03:41.053Z,7.50
2022-08-11T09:04:20.326Z,6.65
2022-08-11T09:04:56.210Z,5.18
2022-08-11T09:05:31.309Z,5.03
2022-08-11T09:06:06.499Z,5.32
2022-08-11T09:06:40.375Z,5.78
2022-08-11T09:07:18.285Z,5.70
2022-08-11T09:07:54.624Z,6.07
2022-08-11T09:08:29.981Z,7.63
2022-08-11T09:09:02.607Z,6.40
2022-08-11T09:09:36.092Z,6.25
2022-08-11T09:10:13.723Z,5.22
2022-08-11T09:10:47.580Z,7.45
2022-08-11T09:11:39.137Z,8.05
2022-08-11T09:12:13.149Z,6.57
2022-08-11T09:12:49.150Z,5.93
2022-08-11T09:13:21.523Z,5.80
2022-08-11T09:14:04.844Z,6.30
2022-08-11T09:14:54.734Z,8.25
2022-08-11T09:15:30.489Z,7.88
2022-08-11T09:16:04.798Z,6.10
2022-08-11T09:16:39.219Z,8.05
2022-08-11T09:17:14.578Z,6.10
2022-08-11T09:17:49.448Z,6.88
2022-08-11T09:18:24.295Z,5.15
2022-08-11T09:18:59.612Z,5.78
2022-08-11T09:19:32.057Z,7.15
2022-08-11T09:20:09.800Z,5.13
2022-08-11T09:20:45.285Z,7.85
2022-08-11T09:21:39.765Z,7.78
2022-08-11T09:22:34.559Z,7.10
2022-08-11T09:24:31.986Z,6.15
2022-08-11T09:25:20.031Z,8.75
2022-08-11T09:26:16.611Z,6.90
2022-08-11T09:27:04.188Z,5.68
2022-08-11T09:27:39.099Z,7.15
2022-08-11T09:28:26.665Z,6.85
2022-08-11T09:29:00.063Z,6.25
2022-08-11T09:29:35.922Z,6.65
2022-08-11T09:30:11.619Z,6.97
2022-08-11T09:30:48.743Z,7.38
2022-08-11T09:31:23.030Z,10.43
2022-08-11T09:31:58.845Z,6.68
2022-08-11T09:32:31.704Z,6.00
2022-08-11T09:33:08.735Z,7.80
2022-08-11T09:33:43.035Z,6.78
2022-08-11T09:34:18.347Z,6.53
2022-08-11T09:34:52.549Z,6.45
2022-08-11T09:35:28.116Z,9.27
2022-08-11T09:36:24.178Z,6.45
2022-08-11T09:37:28.463Z,6.28
2022-08-11T09:38:22.621Z,7.10
2022-08-11T09:39:11.705Z,6.47
2022-08-11T09:39:59.357Z,7.90
2022-08-11T09:40:34.214Z,7.82
2022-08-11T09:41:09.363Z,7.93
2022-08-11T09:42:01.424Z,7.65
2022-08-11T09:42:51.510Z,6.93
2022-08-11T09:43:40.969Z,5.88
2022-08-11T09:44:29.128Z,7.63
2022-08-11T09:45:01.517Z,7.25
2022-08-11T09:45:40.547Z,7.70
2022-08-11T09:46:13.946Z,9.07
2022-08-11T09:46:49.920Z,5.13
2022-08-11T09:47:28.246Z,7.25
2022-08-11T09:48:02.184Z,7.03
2022-08-11T09:48:41.688Z,6.80
2022-08-11T09:49:14.063Z,5.32
2022-08-11T09:49:51.830Z,6.88
2022-08-11T09:50:26.942Z,4.90
2022-08-11T09:51:03.568Z,6.18
2022-08-11T09:51:38.996Z,6.47
2022-08-11T09:52:14.896Z,9.10
2022-08-11T09:53:16.878Z,6.60
2022-08-11T09:53:47.230Z,7.78
2022-08-11T09:54:39.051Z,8.02
2022-08-11T09:55:14.210Z,7.82
2022-08-11T09:55:48.243Z,6.95
2022-08-11T09:56:39.408Z,7.57
2022-08-11T09:57:27.894Z,7.15
2022-08-11T09:58:42.443Z,6.57
2022-08-11T09:59:11.582Z,7.38
2022-08-11T09:59:46.322Z,9.23
2022-08-11T10:00:18.513Z,7.68
2022-08-11T10:00:54.550Z,8.23
2022-08-11T10:01:31.155Z,5.60
2022-08-11T10:02:09.483Z,6.78
2022-08-11T10:02:45.374Z,5.57
2022-08-11T10:03:25.995Z,6.28
2022-08-11T10:04:04.097Z,5.95
2022-08-11T10:04:40.628Z,7.85
2022-08-11T10:05:32.485Z,5.43
2022-08-11T10:06:34.061Z,6.40
2022-08-11T10:07:10.783Z,5.95
2022-08-11T10:07:50.422Z,5.82
2022-08-11T10:08:28.580Z,8.52
2022-08-11T10:09:05.482Z,7.70
2022-08-11T10:09:42.225Z,8.07
2022-08-11T10:10:14.658Z,8.80
2022-08-11T10:10:50.811Z,9.75
2022-08-11T10:11:24.952Z,7.90
2022-08-11T10:12:00.368Z,9.05
2022-08-11T10:12:37.955Z,7.80
2022-08-11T10:14:30.609Z,10.07
2022-08-11T10:14:33.387Z,6.63
2022-08-11T10:15:26.082Z,8.57
2022-08-11T10:16:15.909Z,7.88
2022-08-11T10:16:50.363Z,8.65
2022-08-11T10:17:23.530Z,7.57
2022-08-11T10:18:16.006Z,7.32
2022-08-11T10:18:54.447Z,8.07
2022-08-11T10:19:27.500Z,7.28
2022-08-11T10:20:05.108Z,7.43
2022-08-11T10:20:42.470Z,6.38
2022-08-11T10:21:28.471Z,7.57
2022-08-11T10:22:26.800Z,11.00
2022-08-11T10:23:16.527Z,11.65
2022-08-11T10:24:05.611Z,7.28
2022-08-11T10:24:54.419Z,9.20
2022-08-11T10:25:41.844Z,9.45
2022-08-11T10:26:32.142Z,11.70
2022-08-11T10:27:08.572Z,8.45
2022-08-11T10:28:18.421Z,8.13
2022-08-11T10:29:02.157Z,8.75
2022-08-11T10:29:49.824Z,10.18
2022-08-11T10:30:39.181Z,9.23
2022-08-11T10:31:45.133Z,9.93
2022-08-11T10:32:49.323Z,11.77
2022-08-11T10:33:57.613Z,8.68
2022-08-11T10:34:34.978Z,7.00
2022-08-11T10:35:09.354Z,8.95
2022-08-11T10:35:44.338Z,7.95
2022-08-11T10:36:23.283Z,8.60
2022-08-11T10:36:56.089Z,9.48
2022-08-11T10:38:08.306Z,9.02
2022-08-11T10:38:31.107Z,10.30
2022-08-11T10:39:08.454Z,8.25
2022-08-11T10:39:41.896Z,8.77